Pensacola, FL

11:32 PM CDT on October 24, 2014 (GMT -0500)
Pensacola Naval Air Station | Change Station
CLOSE
Current Station
Airport
Location: Pensacola NAS,
Elevation: 30 ft
Nearby Weather Stations

Elev 30 ft 30.36 °N, 87.32 °W | Updated 36 minutes ago

Clear
Clear
53 °F
Feels Like 53 °F
N
4
Wind Variable Wind from NW

Today
High -- | Low -- °F
--% Chance of Precip.
Yesterday
High -- | Low -- °F
Precip. -- in
6:57 AM 6:08 PM
New Moon, 2% visible
Pressure 30.06 in
Visibility 10.0 miles
Clouds Clear
Dew Point 48 °F
Humidity 83%
Rainfall 0.00 in
Snow Depth Not available.
UV 0 out of 12
Pollen 3.30 out of 12
Ozone Good
PM2.5 Good
Flu Activity Local Activity
METAR KNPA 250356Z 32003KT 10SM CLR 12/09 A3006 RMK AO2 SLP179 T01170089

More Conditions Fewer Conditions

Pressure 30.06 in
Visibility 10.0 miles
Clouds Clear
Dew Point 48 °F
Humidity 83%
Rainfall 0.00 in
Snow Depth Not available.
UV 0 out of 12
Pollen 3.30 out of 12
Ozone Good
PM2.5 Good
Flu Activity Local Activity
METAR KNPA 250356Z 32003KT 10SM CLR 12/09 A3006 RMK AO2 SLP179 T01170089

More Conditions Fewer Conditions

10-Day Weather Forecast

Almanac

Astronomy

Oct. 24, 2014 Rise Set
Actual Time 6:57 AM CDT 6:08 PM CDT
Civil Twilight 6:33 AM CDT 6:33 PM CDT
Nautical Twilight 6:05 AM CDT 7:01 PM CDT
Astronomical Twilight 5:37 AM CDT 7:29 PM CDT
Moon 7:34 AM CDT (10/24) 6:51 PM CDT (10/24)
Length of Visible Light 12h 00m
Length of Day
11h 11m
Tomorrow will be 1m 41s shorter.
New Moon, 2% of the Moon is Illuminated
Oct 25
New Moon
Oct 30
First Quarter
Nov 6
Full
Nov 14
Last Quarter
Nov 22
New

Yesterday's Extremes

State Highs State Lows

Community

WunderPhotos

Upload Photos

1,764,782 photos uploaded!

Nearby

Air Quality

  Air Quality AQ Index Pollutant
Yesterday Good
PM2.5
Yesterday Good
OZONE
Current Good
PM2.5
Current Good
OZONE
Friday Good
OZONE
Friday Good
PM2.5
Saturday Moderate
PM2.5
Saturday Good
OZONE
Sunday Moderate
PM2.5
Sunday Good
OZONE
Monday Moderate
PM2.5
Monday Good
OZONE

Snow Depth

Station Depth Elevation
No new snow has been reported.

Earthquake Activity

City Distance Mag. Time & Date
No recent earthquake activity has been reported nearby.
Minimum magnitude displayed is 2.5.

Coastal Water Temperatures

Place Temperature
No Stations Reporting

Nearby Weather Stations